Woodside, NY

7:03 PM EDT on May 29, 2015 (GMT -0400)
Long Island City | | Change Station
CLOSE
Current Station
Personal Weather Station
Location: Queens, NY
Elevation: 64 ft
Nearby Weather Stations

Elev 64 ft 40.75 °N, 73.93 °W | Updated 3 minutes ago

Mostly Cloudy
Mostly Cloudy
71.1 °F
Feels Like 75 °F
N
2.0
Wind Variable Wind from ESE
Gusts 10.0 mph

Today
High -- | Low -- °F
--% Chance of Precip.
Yesterday
High -- | Low -- °F
Precip. -- in
5:28 AM 8:18 PM
Waxing Gibbous, 86% visible
Pressure 30.23 in
Visibility 10.0 miles
Clouds Mostly Cloudy 25000 ft
Heat Index 75 °F
Dew Point 59 °F
Humidity 66%
Rainfall 0.00 in
Snow Depth Not available.
UV 0 out of 12
Pollen 8.70 out of 12
Air Quality Not available.
Flu Activity Widespread
METAR KLGA 292251Z 16008KT 130V200 10SM BKN250 23/13 A3023 RMK AO2 SLP235 T02280133

More Conditions Fewer Conditions

Pressure 30.23 in
Visibility 10.0 miles
Clouds Mostly Cloudy 25000 ft
Heat Index 75 °F
Dew Point 59 °F
Humidity 66%
Rainfall 0.00 in
Snow Depth Not available.
UV 0 out of 12
Pollen 8.70 out of 12
Air Quality Not available.
Flu Activity Widespread
METAR KLGA 292251Z 16008KT 130V200 10SM BKN250 23/13 A3023 RMK AO2 SLP235 T02280133

More Conditions Fewer Conditions

10-Day Weather Forecast

Almanac

Astronomy

May. 29, 2015 Rise Set
Actual Time
Civil Twilight
Nautical Twilight
Astronomical Twilight
Moon
Length of Visible Light
Length of Day
Tomorrow will be .
, % of the Moon is Illuminated

Today's Extremes

State Highs State Lows

Community

WunderPhotos

Upload Photos

1,825,397 photos uploaded!

WunderBlogs® & News

Nearby

Air Quality

  Air Quality AQ Index Pollutant
Not available.

Snow Depth

Station Depth Elevation

Earthquake Activity

City Distance Mag. Time & Date
Minimum magnitude displayed is 2.5.

Coastal Water Temperatures

Place Temperature

Stations

Nearby Weather Stations

Station Location Temp. Windchill Dew Point Humidity Wind Precip. Elev Updated Type